Aviation Digital Data Service (ADDS)

Output produced by TAFs form (1739 UTC 21 April 2018)
found at http://aviationweather.gov/adds/tafs/
 
TAF RJOO 211706Z 2118/2300 32004KT CAVOK 
     BECMG 2200/2202 22007KT 
     BECMG 2209/2212 32004KT